createdAt,value
2018-04-15T00:00:19.758Z,90
2018-04-15T00:01:19.967Z,90
2018-04-15T00:02:20.220Z,90
2018-04-15T00:03:19.824Z,91
2018-04-15T00:04:20.346Z,91
2018-04-15T00:05:20.006Z,91
2018-04-15T00:06:20.343Z,91
2018-04-15T00:07:20.013Z,91
2018-04-15T00:08:19.828Z,91
2018-04-15T00:09:20.302Z,91
2018-04-15T00:10:19.828Z,91
2018-04-15T00:11:20.234Z,91
2018-04-15T00:12:20.275Z,91
2018-04-15T00:13:20.270Z,91
2018-04-15T00:14:20.007Z,91
2018-04-15T00:15:19.833Z,91
2018-04-15T00:16:19.812Z,91
2018-04-15T00:17:20.010Z,91
2018-04-15T00:18:20.235Z,91
2018-04-15T00:19:19.882Z,91
2018-04-15T00:20:20.238Z,91
2018-04-15T00:21:20.280Z,91
2018-04-15T00:22:20.029Z,91
2018-04-15T00:23:20.307Z,91
2018-04-15T00:24:19.993Z,91
2018-04-15T00:25:19.874Z,91
2018-04-15T00:26:20.323Z,92
2018-04-15T00:27:20.285Z,92
2018-04-15T00:28:20.063Z,91
2018-04-15T00:29:19.855Z,91
2018-04-15T00:30:20.066Z,91
2018-04-15T00:31:20.268Z,92
2018-04-15T00:32:20.086Z,92
2018-04-15T00:33:20.244Z,92
2018-04-15T00:34:20.291Z,92
2018-04-15T00:35:20.299Z,92
2018-04-15T00:36:20.292Z,92
2018-04-15T00:37:20.041Z,92
2018-04-15T00:38:20.264Z,92
2018-04-15T00:39:20.040Z,92
2018-04-15T00:40:20.329Z,92
2018-04-15T00:41:20.028Z,92
2018-04-15T00:42:19.828Z,92
2018-04-15T00:43:20.153Z,92
2018-04-15T00:44:20.309Z,92
2018-04-15T00:45:20.344Z,92
2018-04-15T00:46:20.266Z,92
2018-04-15T00:47:20.273Z,92
2018-04-15T00:48:19.917Z,92
2018-04-15T00:49:19.888Z,92
2018-04-15T00:50:20.270Z,92
2018-04-15T00:51:20.565Z,92
2018-04-15T00:52:19.908Z,92
2018-04-15T00:53:20.029Z,92
2018-04-15T00:54:19.929Z,92
2018-04-15T00:55:20.331Z,92
2018-04-15T00:56:20.313Z,93
2018-04-15T00:57:20.048Z,93
2018-04-15T00:58:20.357Z,93
2018-04-15T00:59:19.898Z,93
2018-04-15T01:00:21.291Z,93
2018-04-15T01:01:20.132Z,93
2018-04-15T01:02:20.354Z,93
2018-04-15T01:03:20.345Z,93
2018-04-15T01:04:19.955Z,93
2018-04-15T01:05:20.386Z,93
2018-04-15T01:06:19.911Z,93
2018-04-15T01:07:20.105Z,93
2018-04-15T01:08:20.334Z,93
2018-04-15T01:09:21.021Z,92
2018-04-15T01:10:20.128Z,92
2018-04-15T01:11:20.397Z,92
2018-04-15T01:12:20.392Z,92
2018-04-15T01:13:20.388Z,92
2018-04-15T01:14:19.913Z,92
2018-04-15T01:15:20.159Z,92
2018-04-15T01:16:20.374Z,93
2018-04-15T01:17:20.383Z,93
2018-04-15T01:18:20.366Z,93
2018-04-15T01:19:19.929Z,93
2018-04-15T01:20:20.451Z,93
2018-04-15T01:21:20.401Z,93
2018-04-15T01:22:20.405Z,93
2018-04-15T01:23:19.940Z,93
2018-04-15T01:24:20.391Z,93
2018-04-15T01:25:20.453Z,93
2018-04-15T01:26:20.149Z,93
2018-04-15T01:27:20.432Z,93
2018-04-15T01:28:19.958Z,93
2018-04-15T01:29:20.128Z,93
2018-04-15T01:30:20.492Z,93
2018-04-15T01:31:20.431Z,93
2018-04-15T01:32:19.963Z,93
2018-04-15T01:33:20.391Z,93
2018-04-15T01:34:20.412Z,93
2018-04-15T01:35:20.537Z,93
2018-04-15T01:36:20.404Z,93
2018-04-15T01:37:20.130Z,93
2018-04-15T01:38:19.984Z,93
2018-04-15T01:39:19.953Z,93
2018-04-15T01:40:20.455Z,93
2018-04-15T01:41:20.429Z,93
2018-04-15T01:42:20.481Z,93
2018-04-15T01:43:20.155Z,93
2018-04-15T01:44:20.463Z,93
2018-04-15T01:45:20.153Z,93
2018-04-15T01:46:20.473Z,93
2018-04-15T01:47:20.200Z,93
2018-04-15T01:48:20.187Z,93
2018-04-15T01:49:20.459Z,93
2018-04-15T01:50:20.463Z,93
2018-04-15T01:51:20.025Z,93
2018-04-15T01:52:20.467Z,93
2018-04-15T01:53:20.475Z,93
2018-04-15T01:54:20.029Z,93
2018-04-15T01:55:20.018Z,93
2018-04-15T01:56:20.423Z,93
2018-04-15T01:57:20.564Z,93
2018-04-15T01:58:20.482Z,93
2018-04-15T01:59:20.410Z,93
2018-04-15T02:00:20.459Z,93
2018-04-15T02:01:20.153Z,93
2018-04-15T02:02:20.352Z,93
2018-04-15T02:03:20.027Z,93
2018-04-15T02:04:20.246Z,93
2018-04-15T02:05:20.424Z,94
2018-04-15T02:06:20.051Z,94
2018-04-15T02:07:20.429Z,94
2018-04-15T02:08:20.148Z,94
2018-04-15T02:09:20.207Z,94
2018-04-15T02:10:20.217Z,94
2018-04-15T02:11:20.189Z,94
2018-04-15T02:12:20.478Z,94
2018-04-15T02:13:20.207Z,94
2018-04-15T02:14:20.509Z,94
2018-04-15T02:15:20.446Z,94
2018-04-15T02:16:20.441Z,94
2018-04-15T02:17:20.056Z,94
2018-04-15T02:18:20.477Z,94
2018-04-15T02:19:20.290Z,94
2018-04-15T02:20:20.441Z,94
2018-04-15T02:21:20.202Z,94
2018-04-15T02:22:20.226Z,94
2018-04-15T02:23:20.574Z,94
2018-04-15T02:24:20.221Z,94
2018-04-15T02:25:20.243Z,94
2018-04-15T02:26:20.502Z,94
2018-04-15T02:27:20.483Z,94
2018-04-15T02:28:20.466Z,94
2018-04-15T02:29:20.499Z,94
2018-04-15T02:30:20.048Z,94
2018-04-15T02:31:20.540Z,94
2018-04-15T02:32:20.225Z,94
2018-04-15T02:33:20.549Z,94
2018-04-15T02:34:20.661Z,94
2018-04-15T02:35:20.439Z,94
2018-04-15T02:36:20.595Z,94
2018-04-15T02:37:20.266Z,94
2018-04-15T02:38:20.488Z,94
2018-04-15T02:39:20.551Z,94
2018-04-15T02:40:20.148Z,94
2018-04-15T02:41:20.549Z,94
2018-04-15T02:42:20.550Z,94
2018-04-15T02:43:20.519Z,94
2018-04-15T02:44:20.270Z,94
2018-04-15T02:45:20.096Z,94
2018-04-15T02:46:20.568Z,94
2018-04-15T02:47:20.531Z,94
2018-04-15T02:48:20.110Z,94
2018-04-15T02:49:20.065Z,94
2018-04-15T02:50:20.254Z,94
2018-04-15T02:51:20.301Z,94
2018-04-15T02:52:20.569Z,94
2018-04-15T02:53:20.530Z,94
2018-04-15T02:54:20.587Z,94
2018-04-15T02:55:20.308Z,94
2018-04-15T02:56:20.271Z,94
2018-04-15T02:57:20.528Z,94
2018-04-15T02:58:20.516Z,94
2018-04-15T02:59:20.583Z,94
2018-04-15T03:00:20.322Z,94
2018-04-15T03:01:20.601Z,94
2018-04-15T03:02:20.135Z,94
2018-04-15T03:03:20.123Z,94
2018-04-15T03:04:20.154Z,94
2018-04-15T03:05:20.143Z,94
2018-04-15T03:06:20.599Z,95
2018-04-15T03:07:20.151Z,95
2018-04-15T03:08:20.560Z,95
2018-04-15T03:09:20.297Z,95
2018-04-15T03:10:20.176Z,95
2018-04-15T03:11:20.354Z,95
2018-04-15T03:12:20.479Z,95
2018-04-15T03:13:20.141Z,95
2018-04-15T03:14:20.279Z,95
2018-04-15T03:15:20.650Z,95
2018-04-15T03:16:20.173Z,95
2018-04-15T03:17:20.593Z,95
2018-04-15T03:18:20.643Z,95
2018-04-15T03:19:20.604Z,95
2018-04-15T03:20:21.158Z,95
2018-04-15T03:21:20.176Z,95
2018-04-15T03:22:20.327Z,95
2018-04-15T03:23:20.597Z,95
2018-04-15T03:24:20.589Z,95
2018-04-15T03:25:20.633Z,95
2018-04-15T03:26:20.317Z,95
2018-04-15T03:27:20.405Z,95
2018-04-15T03:28:20.341Z,95
2018-04-15T03:29:20.354Z,95
2018-04-15T03:30:20.393Z,95
2018-04-15T03:31:20.424Z,95
2018-04-15T03:32:20.397Z,95
2018-04-15T03:33:20.633Z,95
2018-04-15T03:34:20.139Z,95
2018-04-15T03:35:20.191Z,95
2018-04-15T03:36:20.400Z,95
2018-04-15T03:37:20.642Z,95
2018-04-15T03:38:20.636Z,95
2018-04-15T03:39:20.369Z,95
2018-04-15T03:40:20.227Z,95
2018-04-15T03:41:20.663Z,95
2018-04-15T03:42:20.356Z,95
2018-04-15T03:43:20.626Z,95
2018-04-15T03:44:20.623Z,95
2018-04-15T03:45:20.597Z,95
2018-04-15T03:46:20.224Z,95
2018-04-15T03:47:20.257Z,95
2018-04-15T03:48:20.340Z,95
2018-04-15T03:49:20.638Z,95
2018-04-15T03:50:20.203Z,95
2018-04-15T03:51:20.414Z,95
2018-04-15T03:52:20.257Z,95
2018-04-15T03:53:20.255Z,95
2018-04-15T03:54:20.665Z,95
2018-04-15T03:55:20.170Z,95
2018-04-15T03:56:20.705Z,95
2018-04-15T03:57:20.647Z,95
2018-04-15T03:58:20.623Z,95
2018-04-15T03:59:20.401Z,95
2018-04-15T04:00:20.242Z,95
2018-04-15T04:01:20.692Z,95
2018-04-15T04:02:20.251Z,96
2018-04-15T04:03:20.638Z,96
2018-04-15T04:04:20.666Z,96
2018-04-15T04:05:20.388Z,96
2018-04-15T04:06:20.407Z,96
2018-04-15T04:07:20.706Z,96
2018-04-15T04:08:20.231Z,96
2018-04-15T04:09:20.712Z,96
2018-04-15T04:10:20.650Z,96
2018-04-15T04:11:20.424Z,96
2018-04-15T04:12:20.433Z,96
2018-04-15T04:13:20.392Z,96
2018-04-15T04:14:20.613Z,95
2018-04-15T04:15:20.682Z,95
2018-04-15T04:16:20.492Z,95
2018-04-15T04:17:20.915Z,95
2018-04-15T04:18:20.423Z,95
2018-04-15T04:19:20.678Z,95
2018-04-15T04:20:20.459Z,95
2018-04-15T04:21:20.264Z,95
2018-04-15T04:22:20.724Z,96
2018-04-15T04:23:20.279Z,96
2018-04-15T04:24:20.447Z,96
2018-04-15T04:25:21.052Z,96
2018-04-15T04:26:20.767Z,96
2018-04-15T04:27:20.344Z,96
2018-04-15T04:28:20.262Z,96
2018-04-15T04:29:20.742Z,96
2018-04-15T04:30:20.308Z,96
2018-04-15T04:31:20.471Z,96
2018-04-15T04:32:20.801Z,96
2018-04-15T04:33:20.708Z,96
2018-04-15T04:34:20.313Z,96
2018-04-15T04:35:20.462Z,96
2018-04-15T04:36:20.460Z,96
2018-04-15T04:37:21.123Z,96
2018-04-15T04:38:20.716Z,96
2018-04-15T04:39:20.470Z,96
2018-04-15T04:40:20.305Z,95
2018-04-15T04:41:20.766Z,95
2018-04-15T04:42:20.532Z,95
2018-04-15T04:43:20.322Z,95
2018-04-15T04:44:20.774Z,95
2018-04-15T04:45:20.353Z,95
2018-04-15T04:46:20.495Z,95
2018-04-15T04:47:20.786Z,95
2018-04-15T04:48:20.888Z,95
2018-04-15T04:49:20.755Z,95
2018-04-15T04:50:20.321Z,95
2018-04-15T04:51:20.328Z,95
2018-04-15T04:52:20.518Z,95
2018-04-15T04:53:20.503Z,96
2018-04-15T04:54:20.488Z,96
2018-04-15T04:55:20.718Z,96
2018-04-15T04:56:20.841Z,96
2018-04-15T04:57:20.337Z,96
2018-04-15T04:58:20.803Z,96
2018-04-15T04:59:20.778Z,96
2018-04-15T05:00:20.505Z,96
2018-04-15T05:01:20.765Z,96
2018-04-15T05:02:20.891Z,96
2018-04-15T05:03:20.537Z,96
2018-04-15T05:04:20.810Z,96
2018-04-15T05:05:20.598Z,96
2018-04-15T05:06:20.797Z,96
2018-04-15T05:07:20.525Z,96
2018-04-15T05:08:20.327Z,96
2018-04-15T05:09:20.520Z,96
2018-04-15T05:10:20.771Z,96
2018-04-15T05:11:20.548Z,96
2018-04-15T05:12:20.557Z,96
2018-04-15T05:13:20.805Z,96
2018-04-15T05:14:20.867Z,96
2018-04-15T05:15:20.360Z,96
2018-04-15T05:16:20.397Z,96
2018-04-15T05:17:20.400Z,96
2018-04-15T05:18:20.425Z,96
2018-04-15T05:19:20.831Z,96
2018-04-15T05:20:20.572Z,96
2018-04-15T05:21:20.427Z,96
2018-04-15T05:22:20.790Z,96
2018-04-15T05:23:20.565Z,96
2018-04-15T05:24:20.879Z,96
2018-04-15T05:25:20.933Z,96
2018-04-15T05:26:20.868Z,96
2018-04-15T05:27:20.813Z,96
2018-04-15T05:28:20.823Z,96
2018-04-15T05:29:20.856Z,96
2018-04-15T05:30:20.548Z,96
2018-04-15T05:31:20.610Z,96
2018-04-15T05:32:20.452Z,96
2018-04-15T05:33:20.858Z,96
2018-04-15T05:34:20.415Z,96
2018-04-15T05:35:20.868Z,96
2018-04-15T05:36:20.450Z,96
2018-04-15T05:37:20.579Z,96
2018-04-15T05:38:20.847Z,96
2018-04-15T05:39:20.951Z,96
2018-04-15T05:40:20.830Z,96
2018-04-15T05:41:20.873Z,96
2018-04-15T05:42:20.435Z,96
2018-04-15T05:43:20.613Z,96
2018-04-15T05:44:20.603Z,96
2018-04-15T05:45:20.762Z,96
2018-04-15T05:46:20.423Z,96
2018-04-15T05:47:20.984Z,96
2018-04-15T05:48:20.838Z,96
2018-04-15T05:49:20.917Z,96
2018-04-15T05:50:20.875Z,96
2018-04-15T05:51:20.923Z,96
2018-04-15T05:52:21.003Z,96
2018-04-15T05:53:20.845Z,96
2018-04-15T05:54:20.889Z,96
2018-04-15T05:55:20.859Z,96
2018-04-15T05:56:20.486Z,96
2018-04-15T05:57:20.478Z,96
2018-04-15T05:58:20.919Z,96
2018-04-15T05:59:20.865Z,96
2018-04-15T06:00:20.890Z,96
2018-04-15T06:01:20.649Z,96
2018-04-15T06:02:20.476Z,96
2018-04-15T06:03:20.663Z,96
2018-04-15T06:04:20.891Z,96
2018-04-15T06:05:20.964Z,96
2018-04-15T06:06:20.887Z,96
2018-04-15T06:07:20.872Z,96
2018-04-15T06:08:20.411Z,96
2018-04-15T06:09:20.960Z,96
2018-04-15T06:10:20.839Z,96
2018-04-15T06:11:20.942Z,96
2018-04-15T06:12:20.655Z,96
2018-04-15T06:13:20.452Z,96
2018-04-15T06:14:20.955Z,96
2018-04-15T06:15:20.438Z,96
2018-04-15T06:16:20.760Z,95
2018-04-15T06:17:20.488Z,95
2018-04-15T06:18:20.846Z,95
2018-04-15T06:19:20.946Z,95
2018-04-15T06:20:20.891Z,95
2018-04-15T06:21:20.926Z,95
2018-04-15T06:22:20.638Z,95
2018-04-15T06:23:20.917Z,95
2018-04-15T06:24:20.990Z,95
2018-04-15T06:25:20.527Z,95
2018-04-15T06:26:21.058Z,95
2018-04-15T06:27:20.923Z,95
2018-04-15T06:28:20.959Z,95
2018-04-15T06:29:20.975Z,95
2018-04-15T06:30:20.916Z,95
2018-04-15T06:31:20.675Z,95
2018-04-15T06:32:20.483Z,95
2018-04-15T06:33:20.937Z,95
2018-04-15T06:34:20.737Z,95
2018-04-15T06:35:20.741Z,95
2018-04-15T06:36:20.701Z,95
2018-04-15T06:37:20.967Z,94
2018-04-15T06:38:21.027Z,94
2018-04-15T06:39:20.928Z,94
2018-04-15T06:40:21.007Z,94
2018-04-15T06:41:21.007Z,94
2018-04-15T06:42:21.048Z,94
2018-04-15T06:43:20.552Z,94
2018-04-15T06:44:20.968Z,94
2018-04-15T06:45:21.108Z,94
2018-04-15T06:46:20.973Z,94
2018-04-15T06:47:20.821Z,94
2018-04-15T06:48:21.006Z,94
2018-04-15T06:49:21.268Z,94
2018-04-15T06:50:21.021Z,94
2018-04-15T06:51:22.683Z,94
2018-04-15T06:52:20.589Z,92
2018-04-15T06:53:20.695Z,92
2018-04-15T06:54:20.540Z,92
2018-04-15T06:55:20.948Z,91
2018-04-15T06:56:20.958Z,91
2018-04-15T06:57:20.733Z,91
2018-04-15T06:58:21.020Z,91
2018-04-15T06:59:20.596Z,91
2018-04-15T07:00:20.620Z,90
2018-04-15T07:01:21.219Z,90
2018-04-15T07:02:21.044Z,90
2018-04-15T07:03:21.038Z,90
2018-04-15T07:04:20.615Z,90
2018-04-15T07:05:21.013Z,89
2018-04-15T07:06:20.997Z,89
2018-04-15T07:07:20.743Z,88
2018-04-15T07:08:20.753Z,88
2018-04-15T07:09:20.736Z,88
2018-04-15T07:10:20.765Z,88
2018-04-15T07:11:20.956Z,88
2018-04-15T07:12:21.110Z,87
2018-04-15T07:13:20.994Z,87
2018-04-15T07:14:20.596Z,87
2018-04-15T07:15:20.727Z,85
2018-04-15T07:16:20.750Z,85
2018-04-15T07:17:20.713Z,85
2018-04-15T07:18:20.701Z,85
2018-04-15T07:19:20.780Z,85
2018-04-15T07:20:20.989Z,85
2018-04-15T07:21:21.031Z,85
2018-04-15T07:22:20.801Z,84
2018-04-15T07:23:20.594Z,84
2018-04-15T07:24:20.627Z,84
2018-04-15T07:25:21.053Z,83
2018-04-15T07:26:21.095Z,83
2018-04-15T07:27:21.019Z,83
2018-04-15T07:28:21.022Z,83
2018-04-15T07:29:21.028Z,83
2018-04-15T07:30:20.740Z,82
2018-04-15T07:31:20.583Z,82
2018-04-15T07:32:21.040Z,82
2018-04-15T07:33:21.024Z,81
2018-04-15T07:34:20.801Z,81
2018-04-15T07:35:21.037Z,81
2018-04-15T07:36:20.676Z,81
2018-04-15T07:37:20.629Z,80
2018-04-15T07:38:21.111Z,79
2018-04-15T07:39:21.083Z,79
2018-04-15T07:40:21.046Z,78
2018-04-15T07:41:20.800Z,78
2018-04-15T07:42:20.641Z,78
2018-04-15T07:43:21.080Z,78
2018-04-15T07:44:20.810Z,78
2018-04-15T07:45:20.637Z,78
2018-04-15T07:46:20.811Z,78
2018-04-15T07:47:20.639Z,78
2018-04-15T07:48:20.683Z,78
2018-04-15T07:49:20.859Z,78
2018-04-15T07:50:21.101Z,77
2018-04-15T07:51:20.810Z,77
2018-04-15T07:52:20.836Z,77
2018-04-15T07:53:21.199Z,76
2018-04-15T07:54:20.786Z,76
2018-04-15T07:55:21.200Z,76
2018-04-15T07:56:21.127Z,75
2018-04-15T07:57:20.835Z,75
2018-04-15T07:58:21.100Z,73
2018-04-15T07:59:21.141Z,73
2018-04-15T08:00:20.844Z,73
2018-04-15T08:01:20.669Z,72
2018-04-15T08:02:20.737Z,72
2018-04-15T08:03:20.831Z,72
2018-04-15T08:04:20.644Z,72
2018-04-15T08:05:21.115Z,72
2018-04-15T08:06:21.096Z,71
2018-04-15T08:07:21.226Z,71
2018-04-15T08:08:21.130Z,71
2018-04-15T08:09:21.098Z,71
2018-04-15T08:10:21.766Z,71
2018-04-15T08:11:20.686Z,71
2018-04-15T08:12:21.158Z,71
2018-04-15T08:13:21.138Z,71
2018-04-15T08:14:21.105Z,71
2018-04-15T08:15:21.177Z,71
2018-04-15T08:16:20.724Z,70
2018-04-15T08:17:20.704Z,70
2018-04-15T08:18:21.180Z,71
2018-04-15T08:19:20.900Z,71
2018-04-15T08:20:21.184Z,71
2018-04-15T08:21:21.149Z,71
2018-04-15T08:22:20.906Z,71
2018-04-15T08:23:21.179Z,71
2018-04-15T08:24:20.710Z,71
2018-04-15T08:25:21.177Z,71
2018-04-15T08:26:21.152Z,72
2018-04-15T08:27:20.740Z,72
2018-04-15T08:28:20.937Z,72
2018-04-15T08:29:20.878Z,71
2018-04-15T08:30:21.189Z,71
2018-04-15T08:31:21.176Z,70
2018-04-15T08:32:21.135Z,70
2018-04-15T08:33:21.193Z,70
2018-04-15T08:34:21.227Z,69
2018-04-15T08:35:20.955Z,69
2018-04-15T08:36:20.735Z,69
2018-04-15T08:37:21.205Z,69
2018-04-15T08:38:21.256Z,69
2018-04-15T08:39:20.888Z,69
2018-04-15T08:40:20.716Z,69
2018-04-15T08:41:20.872Z,68
2018-04-15T08:42:20.734Z,68
2018-04-15T08:43:21.242Z,68
2018-04-15T08:44:20.879Z,68
2018-04-15T08:45:20.765Z,68
2018-04-15T08:46:20.965Z,68
2018-04-15T08:47:20.887Z,68
2018-04-15T08:48:21.150Z,68
2018-04-15T08:49:21.132Z,68
2018-04-15T08:50:20.872Z,68
2018-04-15T08:51:21.118Z,67
2018-04-15T08:52:20.980Z,67
2018-04-15T08:53:20.757Z,67
2018-04-15T08:54:21.221Z,67
2018-04-15T08:55:20.808Z,67
2018-04-15T08:56:20.781Z,67
2018-04-15T08:57:20.945Z,67
2018-04-15T08:58:21.277Z,67
2018-04-15T08:59:20.778Z,67
2018-04-15T09:00:20.811Z,67
2018-04-15T09:01:21.452Z,67
2018-04-15T09:02:20.982Z,66
2018-04-15T09:03:21.296Z,66
2018-04-15T09:04:20.974Z,66
2018-04-15T09:05:20.955Z,66
2018-04-15T09:06:20.901Z,66
2018-04-15T09:07:21.202Z,65
2018-04-15T09:08:20.828Z,65
2018-04-15T09:09:20.799Z,65
2018-04-15T09:10:21.295Z,65
2018-04-15T09:11:21.016Z,65
2018-04-15T09:12:20.839Z,64
2018-04-15T09:13:20.995Z,64
2018-04-15T09:14:20.878Z,63
2018-04-15T09:15:21.269Z,63
2018-04-15T09:16:21.282Z,63
2018-04-15T09:17:21.379Z,61
2018-04-15T09:18:20.964Z,61
2018-04-15T09:19:20.922Z,59
2018-04-15T09:20:21.076Z,59
2018-04-15T09:21:21.192Z,59
2018-04-15T09:22:20.914Z,61
2018-04-15T09:23:21.422Z,61
2018-04-15T09:24:21.321Z,61
2018-04-15T09:25:21.045Z,61
2018-04-15T09:26:21.111Z,61
2018-04-15T09:27:21.342Z,60
2018-04-15T09:28:21.311Z,60
2018-04-15T09:29:21.014Z,60
2018-04-15T09:30:20.994Z,60
2018-04-15T09:31:21.295Z,60
2018-04-15T09:32:20.863Z,61
2018-04-15T09:33:21.281Z,61
2018-04-15T09:34:21.090Z,61
2018-04-15T09:35:21.285Z,62
2018-04-15T09:36:20.879Z,62
2018-04-15T09:37:20.869Z,61
2018-04-15T09:38:21.356Z,61
2018-04-15T09:39:21.150Z,61
2018-04-15T09:40:21.657Z,60
2018-04-15T09:41:21.379Z,60
2018-04-15T09:42:21.369Z,60
2018-04-15T09:43:20.914Z,60
2018-04-15T09:44:21.131Z,60
2018-04-15T09:45:20.931Z,61
2018-04-15T09:46:21.362Z,61
2018-04-15T09:47:20.936Z,60
2018-04-15T09:48:21.053Z,60
2018-04-15T09:49:21.298Z,60
2018-04-15T09:50:20.987Z,60
2018-04-15T09:51:21.057Z,60
2018-04-15T09:52:21.319Z,60
2018-04-15T09:53:21.069Z,60
2018-04-15T09:54:21.288Z,60
2018-04-15T09:55:20.886Z,57
2018-04-15T09:56:21.061Z,57
2018-04-15T09:57:21.066Z,57
2018-04-15T09:58:20.948Z,57
2018-04-15T09:59:21.469Z,57
2018-04-15T10:00:21.248Z,59
2018-04-15T10:01:21.277Z,59
2018-04-15T10:02:21.291Z,59
2018-04-15T10:03:21.298Z,59
2018-04-15T10:04:21.056Z,59
2018-04-15T10:05:21.258Z,59
2018-04-15T10:06:21.080Z,59
2018-04-15T10:07:21.323Z,59
2018-04-15T10:08:20.905Z,60
2018-04-15T10:09:21.059Z,60
2018-04-15T10:10:21.333Z,60
2018-04-15T10:11:21.082Z,60
2018-04-15T10:12:21.334Z,60
2018-04-15T10:13:20.999Z,60
2018-04-15T10:14:21.300Z,60
2018-04-15T10:15:21.421Z,58
2018-04-15T10:16:20.899Z,58
2018-04-15T10:17:21.078Z,58
2018-04-15T10:18:20.908Z,59
2018-04-15T10:19:21.322Z,59
2018-04-15T10:20:20.926Z,57
2018-04-15T10:21:21.277Z,57
2018-04-15T10:22:21.307Z,57
2018-04-15T10:23:21.084Z,57
2018-04-15T10:24:21.368Z,57
2018-04-15T10:25:21.395Z,56
2018-04-15T10:26:21.065Z,56
2018-04-15T10:27:21.370Z,56
2018-04-15T10:28:21.348Z,55
2018-04-15T10:29:21.334Z,55
2018-04-15T10:30:21.107Z,55
2018-04-15T10:31:21.088Z,55
2018-04-15T10:32:21.349Z,55
2018-04-15T10:33:20.928Z,57
2018-04-15T10:34:20.902Z,57
2018-04-15T10:35:21.525Z,57
2018-04-15T10:36:21.371Z,58
2018-04-15T10:37:21.129Z,58
2018-04-15T10:38:20.928Z,57
2018-04-15T10:39:20.949Z,57
2018-04-15T10:40:21.926Z,57
2018-04-15T10:41:21.394Z,56
2018-04-15T10:42:21.443Z,56
2018-04-15T10:43:21.391Z,59
2018-04-15T10:44:21.226Z,59
2018-04-15T10:45:21.013Z,59
2018-04-15T10:46:20.986Z,58
2018-04-15T10:47:21.421Z,58
2018-04-15T10:48:21.010Z,58
2018-04-15T10:49:21.506Z,58
2018-04-15T10:50:21.451Z,58
2018-04-15T10:51:21.429Z,58
2018-04-15T10:52:20.989Z,58
2018-04-15T10:53:21.167Z,58
2018-04-15T10:54:21.437Z,58
2018-04-15T10:55:21.495Z,58
2018-04-15T10:56:21.170Z,57
2018-04-15T10:57:21.197Z,57
2018-04-15T10:58:21.470Z,57
2018-04-15T10:59:21.514Z,57
2018-04-15T11:00:21.029Z,57
2018-04-15T11:01:20.966Z,56
2018-04-15T11:02:20.981Z,56
2018-04-15T11:03:21.164Z,56
2018-04-15T11:04:21.473Z,57
2018-04-15T11:05:21.035Z,57
2018-04-15T11:06:21.180Z,55
2018-04-15T11:07:21.394Z,55
2018-04-15T11:08:21.048Z,55
2018-04-15T11:09:21.487Z,54
2018-04-15T11:10:21.488Z,54
2018-04-15T11:11:20.989Z,55
2018-04-15T11:12:21.274Z,55
2018-04-15T11:13:21.166Z,55
2018-04-15T11:14:21.442Z,56
2018-04-15T11:15:20.997Z,56
2018-04-15T11:16:21.200Z,57
2018-04-15T11:17:21.024Z,57
2018-04-15T11:18:21.465Z,57
2018-04-15T11:19:21.199Z,57
2018-04-15T11:20:21.184Z,57
2018-04-15T11:21:21.381Z,57
2018-04-15T11:22:21.476Z,57
2018-04-15T11:23:21.130Z,57
2018-04-15T11:24:21.046Z,55
2018-04-15T11:25:21.040Z,55
2018-04-15T11:26:21.248Z,57
2018-04-15T11:27:21.467Z,57
2018-04-15T11:28:21.060Z,57
2018-04-15T11:29:21.058Z,57
2018-04-15T11:30:21.057Z,57
2018-04-15T11:31:21.632Z,57
2018-04-15T11:32:21.486Z,57
2018-04-15T11:33:21.087Z,57
2018-04-15T11:34:21.099Z,56
2018-04-15T11:35:21.533Z,56
2018-04-15T11:36:21.540Z,56
2018-04-15T11:37:21.288Z,56
2018-04-15T11:38:21.110Z,56
2018-04-15T11:39:21.491Z,56
2018-04-15T11:40:21.231Z,56
2018-04-15T11:41:21.506Z,56
2018-04-15T11:42:21.539Z,54
2018-04-15T11:43:21.224Z,54
2018-04-15T11:44:21.513Z,56
2018-04-15T11:45:21.530Z,56
2018-04-15T11:46:21.517Z,56
2018-04-15T11:47:21.106Z,54
2018-04-15T11:48:21.578Z,54
2018-04-15T11:49:21.204Z,54
2018-04-15T11:50:21.068Z,54
2018-04-15T11:51:21.250Z,54
2018-04-15T11:52:21.103Z,56
2018-04-15T11:53:21.127Z,56
2018-04-15T11:54:21.095Z,54
2018-04-15T11:55:21.592Z,54
2018-04-15T11:56:21.299Z,54
2018-04-15T11:57:21.525Z,52
2018-04-15T11:58:21.534Z,52
2018-04-15T11:59:21.625Z,52
2018-04-15T12:00:21.671Z,52
2018-04-15T12:01:21.303Z,52
2018-04-15T12:02:21.784Z,54
2018-04-15T12:03:21.686Z,54
2018-04-15T12:04:21.654Z,54
2018-04-15T12:05:21.258Z,52
2018-04-15T12:06:21.613Z,52
2018-04-15T12:07:21.583Z,53
2018-04-15T12:08:21.501Z,53
2018-04-15T12:09:21.435Z,53
2018-04-15T12:10:21.443Z,53
2018-04-15T12:11:21.695Z,53
2018-04-15T12:12:21.174Z,53
2018-04-15T12:13:21.595Z,53
2018-04-15T12:14:21.583Z,53
2018-04-15T12:15:22.336Z,53
2018-04-15T12:16:21.143Z,53
2018-04-15T12:17:21.591Z,53
2018-04-15T12:18:21.570Z,53
2018-04-15T12:19:21.590Z,53
2018-04-15T12:20:21.623Z,53
2018-04-15T12:21:21.633Z,53
2018-04-15T12:22:21.560Z,52
2018-04-15T12:23:21.343Z,52
2018-04-15T12:24:21.606Z,52
2018-04-15T12:25:21.350Z,53
2018-04-15T12:26:21.810Z,53
2018-04-15T12:27:21.316Z,55
2018-04-15T12:28:21.582Z,55
2018-04-15T12:29:21.624Z,55
2018-04-15T12:30:21.400Z,55
2018-04-15T12:31:21.622Z,55
2018-04-15T12:32:21.606Z,55
2018-04-15T12:33:21.595Z,56
2018-04-15T12:34:21.634Z,56
2018-04-15T12:35:21.633Z,55
2018-04-15T12:36:21.193Z,55
2018-04-15T12:37:21.612Z,55
2018-04-15T12:38:21.372Z,57
2018-04-15T12:39:21.354Z,57
2018-04-15T12:40:21.357Z,55
2018-04-15T12:41:21.437Z,55
2018-04-15T12:42:21.624Z,55
2018-04-15T12:43:21.250Z,54
2018-04-15T12:44:21.689Z,54
2018-04-15T12:45:21.456Z,53
2018-04-15T12:46:21.476Z,53
2018-04-15T12:47:21.246Z,53
2018-04-15T12:48:21.356Z,54
2018-04-15T12:49:21.423Z,54
2018-04-15T12:50:21.649Z,55
2018-04-15T12:51:21.208Z,55
2018-04-15T12:52:21.637Z,55
2018-04-15T12:53:21.363Z,55
2018-04-15T12:54:21.593Z,55
2018-04-15T12:55:21.649Z,56
2018-04-15T12:56:21.424Z,56
2018-04-15T12:57:21.642Z,56
2018-04-15T12:58:21.670Z,56
2018-04-15T12:59:21.698Z,56
2018-04-15T13:00:21.655Z,56
2018-04-15T13:01:21.382Z,55
2018-04-15T13:02:21.380Z,55
2018-04-15T13:03:21.404Z,52
2018-04-15T13:04:21.476Z,52
2018-04-15T13:05:21.269Z,52
2018-04-15T13:06:21.495Z,53
2018-04-15T13:07:21.471Z,53
2018-04-15T13:08:21.810Z,53
2018-04-15T13:09:21.317Z,53
2018-04-15T13:10:24.942Z,53
2018-04-15T13:11:21.371Z,53
2018-04-15T13:12:21.299Z,53
2018-04-15T13:13:21.412Z,54
2018-04-15T13:14:21.403Z,54
2018-04-15T13:15:21.414Z,54
2018-04-15T13:16:21.453Z,54
2018-04-15T13:17:21.719Z,54
2018-04-15T13:18:21.655Z,55
2018-04-15T13:19:21.293Z,55
2018-04-15T13:20:21.431Z,55
2018-04-15T13:21:21.707Z,55
2018-04-15T13:22:21.279Z,55
2018-04-15T13:23:21.715Z,54
2018-04-15T13:24:21.694Z,54
2018-04-15T13:25:21.455Z,54
2018-04-15T13:26:21.326Z,55
2018-04-15T13:27:21.718Z,55
2018-04-15T13:28:21.448Z,54
2018-04-15T13:29:21.703Z,54
2018-04-15T13:30:21.492Z,54
2018-04-15T13:31:21.659Z,56
2018-04-15T13:32:25.697Z,56
2018-04-15T13:33:21.749Z,56
2018-04-15T13:34:21.692Z,56
2018-04-15T13:35:21.723Z,56
2018-04-15T13:36:21.703Z,57
2018-04-15T13:37:21.722Z,57
2018-04-15T13:38:21.734Z,57
2018-04-15T13:39:21.700Z,55
2018-04-15T13:40:21.585Z,55
2018-04-15T13:41:21.930Z,55
2018-04-15T13:42:21.722Z,55
2018-04-15T13:43:21.722Z,55
2018-04-15T13:44:21.666Z,55
2018-04-15T13:45:21.787Z,55
2018-04-15T13:46:21.280Z,58
2018-04-15T13:47:21.260Z,58
2018-04-15T13:48:21.451Z,58
2018-04-15T13:49:21.435Z,54
2018-04-15T13:50:21.766Z,54
2018-04-15T13:51:21.304Z,54
2018-04-15T13:52:21.783Z,54
2018-04-15T13:53:21.752Z,54
2018-04-15T13:54:21.751Z,54
2018-04-15T13:55:21.353Z,54
2018-04-15T13:56:22.651Z,54
2018-04-15T13:57:21.904Z,54
2018-04-15T13:58:21.796Z,54
2018-04-15T13:59:21.306Z,54
2018-04-15T14:00:21.456Z,54
2018-04-15T14:01:21.724Z,54
2018-04-15T14:02:21.777Z,51
2018-04-15T14:03:21.319Z,51
2018-04-15T14:04:21.386Z,52
2018-04-15T14:05:21.480Z,52
2018-04-15T14:06:21.503Z,52
2018-04-15T14:07:21.756Z,52
2018-04-15T14:08:21.756Z,52
2018-04-15T14:09:21.732Z,52
2018-04-15T14:10:21.557Z,52
2018-04-15T14:11:21.749Z,52
2018-04-15T14:12:21.744Z,53
2018-04-15T14:13:21.754Z,53
2018-04-15T14:14:21.779Z,53
2018-04-15T14:15:21.678Z,53